createdAt,value
2019-02-22T00:00:21.404Z,8.80
2019-02-22T00:02:51.592Z,8.80
2019-02-22T00:05:22.806Z,8.80
2019-02-22T00:07:53.091Z,8.80
2019-02-22T00:10:23.318Z,8.80
2019-02-22T00:12:53.609Z,8.80
2019-02-22T00:15:23.927Z,8.80
2019-02-22T00:17:54.213Z,8.80
2019-02-22T00:20:24.514Z,8.80
2019-02-22T00:22:54.705Z,8.80
2019-02-22T00:25:25.101Z,8.80
2019-02-22T00:27:55.385Z,8.90
2019-02-22T00:30:25.686Z,8.90
2019-02-22T00:32:56.040Z,8.90
2019-02-22T00:35:26.322Z,8.90
2019-02-22T00:37:56.500Z,8.90
2019-02-22T00:40:26.705Z,8.90
2019-02-22T00:42:56.890Z,8.90
2019-02-22T00:45:27.287Z,8.90
2019-02-22T00:47:57.474Z,8.90
2019-02-22T00:50:27.690Z,8.90
2019-02-22T00:52:57.978Z,8.90
2019-02-22T00:55:28.288Z,8.90
2019-02-22T00:57:58.569Z,8.90
2019-02-22T01:00:28.777Z,8.90
2019-02-22T01:02:59.075Z,8.80
2019-02-22T01:05:29.378Z,8.80
2019-02-22T01:07:59.866Z,8.80
2019-02-22T01:10:31.479Z,8.80
2019-02-22T01:13:02.065Z,8.80
2019-02-22T01:15:32.342Z,8.80
2019-02-22T01:18:10.992Z,8.80
2019-02-22T01:20:41.767Z,8.80
2019-02-22T01:23:11.940Z,8.80
2019-02-22T01:25:42.247Z,8.80
2019-02-22T01:28:12.523Z,8.80
2019-02-22T01:30:42.821Z,8.80
2019-02-22T01:33:13.999Z,8.80
2019-02-22T01:35:44.200Z,8.80
2019-02-22T01:38:14.373Z,8.80
2019-02-22T01:40:44.584Z,8.80
2019-02-22T01:43:14.867Z,8.80
2019-02-22T01:45:45.369Z,8.80
2019-02-22T01:48:15.548Z,8.80
2019-02-22T01:50:45.755Z,8.80
2019-02-22T01:53:15.944Z,8.90
2019-02-22T01:55:46.519Z,8.80
2019-02-22T01:58:16.764Z,8.80
2019-02-22T02:00:46.980Z,8.80
2019-02-22T02:03:17.166Z,8.80
2019-02-22T02:05:47.364Z,8.80
2019-02-22T02:08:18.139Z,8.80
2019-02-22T02:10:54.214Z,8.80
2019-02-22T02:13:20.276Z,8.80
2019-02-22T02:15:50.553Z,8.80
2019-02-22T02:18:20.858Z,8.80
2019-02-22T02:20:51.857Z,8.80
2019-02-22T02:23:22.020Z,8.80
2019-02-22T02:25:52.201Z,8.90
2019-02-22T02:28:27.515Z,8.90
2019-02-22T02:30:57.976Z,8.90
2019-02-22T02:33:28.468Z,8.90
2019-02-22T02:35:58.852Z,8.90
2019-02-22T02:38:29.160Z,8.90
2019-02-22T02:41:10.002Z,8.90
2019-02-22T02:43:31.252Z,8.90
2019-02-22T02:46:01.531Z,9.00
2019-02-22T02:48:31.728Z,8.90
2019-02-22T02:51:01.909Z,8.90
2019-02-22T02:53:32.218Z,8.90
2019-02-22T02:56:03.207Z,8.90
2019-02-22T02:58:33.574Z,8.90
2019-02-22T03:01:03.826Z,8.80
2019-02-22T03:03:34.127Z,8.90
2019-02-22T03:06:09.286Z,8.90
2019-02-22T03:08:39.575Z,8.90
2019-02-22T03:11:20.303Z,8.90
2019-02-22T03:13:41.579Z,8.90
2019-02-22T03:16:11.759Z,8.90
2019-02-22T03:18:42.039Z,8.90
2019-02-22T03:21:12.215Z,8.90
2019-02-22T03:23:42.424Z,8.90
2019-02-22T03:26:12.618Z,8.90
2019-02-22T03:28:42.812Z,8.80
2019-02-22T03:31:12.993Z,8.80
2019-02-22T03:33:43.894Z,8.80
2019-02-22T03:36:14.067Z,8.80
2019-02-22T03:38:44.472Z,8.80
2019-02-22T03:41:14.664Z,8.80
2019-02-22T03:43:45.835Z,8.90
2019-02-22T03:46:16.219Z,8.90
2019-02-22T03:48:46.520Z,8.80
2019-02-22T03:51:16.804Z,8.80
2019-02-22T03:53:48.476Z,8.80
2019-02-22T03:56:19.070Z,8.90
2019-02-22T03:58:49.539Z,8.90
2019-02-22T04:01:19.764Z,8.80
2019-02-22T04:03:50.129Z,8.80
2019-02-22T04:06:20.294Z,8.80
2019-02-22T04:08:51.086Z,8.80
2019-02-22T04:11:22.025Z,8.80
2019-02-22T04:13:52.290Z,8.80
2019-02-22T04:16:22.471Z,8.80
2019-02-22T04:18:52.666Z,8.80
2019-02-22T04:21:22.840Z,8.80
2019-02-22T04:23:53.117Z,8.80
2019-02-22T04:26:24.492Z,8.80
2019-02-22T04:28:54.700Z,8.80
2019-02-22T04:31:24.950Z,8.80
2019-02-22T04:33:55.276Z,8.80
2019-02-22T04:36:25.532Z,8.80
2019-02-22T04:38:55.833Z,8.70
2019-02-22T04:41:26.001Z,8.80
2019-02-22T04:43:56.307Z,8.80
2019-02-22T04:46:26.484Z,8.80
2019-02-22T04:48:56.684Z,8.80
2019-02-22T04:51:26.964Z,8.80
2019-02-22T04:53:57.245Z,8.80
2019-02-22T04:56:27.428Z,8.80
2019-02-22T04:58:57.620Z,8.80
2019-02-22T05:01:27.809Z,8.80
2019-02-22T05:03:58.017Z,8.80
2019-02-22T05:06:28.193Z,8.90
2019-02-22T05:08:58.497Z,8.90
2019-02-22T05:11:28.669Z,8.90
2019-02-22T05:13:58.964Z,8.90
2019-02-22T05:16:29.129Z,8.90
2019-02-22T05:18:59.519Z,8.80
2019-02-22T05:21:29.797Z,8.80
2019-02-22T05:23:59.983Z,8.90
2019-02-22T05:26:30.173Z,8.90
2019-02-22T05:29:00.371Z,8.80
2019-02-22T05:31:31.096Z,8.70
2019-02-22T05:34:01.487Z,8.70
2019-02-22T05:36:32.160Z,8.70
2019-02-22T05:39:02.460Z,8.70
2019-02-22T05:41:32.628Z,8.70
2019-02-22T05:44:02.831Z,8.70
2019-02-22T05:46:32.992Z,8.70
2019-02-22T05:49:03.198Z,8.70
2019-02-22T05:51:33.567Z,8.70
2019-02-22T05:54:03.771Z,8.70
2019-02-22T05:56:33.952Z,8.70
2019-02-22T05:59:04.317Z,8.70
2019-02-22T06:01:34.483Z,8.70
2019-02-22T06:04:04.736Z,8.70
2019-02-22T06:06:34.924Z,8.70
2019-02-22T06:09:05.767Z,8.70
2019-02-22T06:11:35.960Z,8.70
2019-02-22T06:14:06.464Z,8.70
2019-02-22T06:16:38.384Z,8.70
2019-02-22T06:19:08.724Z,8.70
2019-02-22T06:21:38.992Z,8.70
2019-02-22T06:24:09.205Z,8.70
2019-02-22T06:26:48.472Z,8.70
2019-02-22T06:29:18.868Z,8.70
2019-02-22T06:31:49.052Z,8.70
2019-02-22T06:34:19.255Z,8.70
2019-02-22T06:37:00.816Z,8.70
2019-02-22T06:39:21.465Z,8.70
2019-02-22T06:41:51.647Z,8.70
2019-02-22T06:44:22.056Z,8.70
2019-02-22T06:46:52.251Z,8.70
2019-02-22T06:49:23.971Z,8.70
2019-02-22T06:51:54.239Z,8.60
2019-02-22T06:54:24.635Z,8.70
2019-02-22T06:56:54.820Z,8.60
2019-02-22T06:59:25.130Z,8.70
2019-02-22T07:01:56.112Z,8.70
2019-02-22T07:04:26.316Z,8.70
2019-02-22T07:06:56.599Z,8.70
2019-02-22T07:09:26.815Z,8.70
2019-02-22T07:11:58.631Z,8.60
2019-02-22T07:14:28.833Z,8.70
2019-02-22T07:16:59.695Z,8.70
2019-02-22T07:19:29.929Z,8.60
2019-02-22T07:22:00.207Z,8.60
2019-02-22T07:24:30.548Z,8.60
2019-02-22T07:27:00.716Z,8.70
2019-02-22T07:29:30.901Z,8.70
2019-02-22T07:32:05.778Z,8.70
2019-02-22T07:34:33.381Z,8.70
2019-02-22T07:37:03.761Z,8.70
2019-02-22T07:39:33.944Z,8.80
2019-02-22T07:42:04.288Z,8.80
2019-02-22T07:44:34.563Z,8.80
2019-02-22T07:47:04.827Z,8.90
2019-02-22T07:49:35.009Z,8.90
2019-02-22T07:52:06.120Z,8.90
2019-02-22T07:54:36.304Z,9.00
2019-02-22T07:57:06.718Z,9.00
2019-02-22T07:59:36.998Z,9.10
2019-02-22T08:02:07.340Z,9.10
2019-02-22T08:04:37.519Z,9.10
2019-02-22T08:07:07.731Z,9.10
2019-02-22T08:09:38.023Z,9.10
2019-02-22T08:12:09.724Z,9.10
2019-02-22T08:14:40.364Z,9.10
2019-02-22T08:17:10.653Z,9.10
2019-02-22T08:19:40.827Z,9.10
2019-02-22T08:22:11.276Z,9.10
2019-02-22T08:24:41.400Z,9.20
2019-02-22T08:27:11.966Z,9.20
2019-02-22T08:29:42.236Z,9.30
2019-02-22T08:32:12.795Z,9.40
2019-02-22T08:34:42.971Z,9.40
2019-02-22T08:37:13.175Z,9.40
2019-02-22T08:39:44.835Z,9.40
2019-02-22T08:42:15.040Z,9.50
2019-02-22T08:44:49.683Z,9.50
2019-02-22T08:47:19.871Z,9.40
2019-02-22T08:49:50.132Z,9.40
2019-02-22T08:52:20.324Z,9.40
2019-02-22T08:54:50.493Z,9.40
2019-02-22T08:57:21.495Z,9.40
2019-02-22T08:59:51.840Z,9.40
2019-02-22T09:02:22.039Z,9.50
2019-02-22T09:04:52.312Z,9.60
2019-02-22T09:07:22.503Z,9.60
2019-02-22T09:09:52.683Z,9.60
2019-02-22T09:12:23.501Z,9.70
2019-02-22T09:14:53.684Z,9.70
2019-02-22T09:17:23.888Z,9.70
2019-02-22T09:19:54.331Z,9.70
2019-02-22T09:22:24.701Z,9.80
2019-02-22T09:24:54.863Z,9.90
2019-02-22T09:27:25.187Z,9.90
2019-02-22T09:29:58.849Z,9.90
2019-02-22T09:32:27.885Z,10.00
2019-02-22T09:34:58.079Z,10.00
2019-02-22T09:37:28.279Z,10.00
2019-02-22T09:39:58.559Z,9.90
2019-02-22T09:42:28.760Z,9.90
2019-02-22T09:44:58.948Z,9.90
2019-02-22T09:47:29.612Z,10.00
2019-02-22T09:49:59.792Z,10.10
2019-02-22T09:52:30.027Z,9.90
2019-02-22T09:55:00.420Z,9.90
2019-02-22T09:57:30.596Z,9.90
2019-02-22T10:00:01.075Z,10.00
2019-02-22T10:02:32.390Z,10.00
2019-02-22T10:05:02.580Z,10.00
2019-02-22T10:07:32.804Z,10.10
2019-02-22T10:10:03.112Z,10.20
2019-02-22T10:12:33.308Z,10.30
2019-02-22T10:15:03.701Z,10.30
2019-02-22T10:17:33.920Z,10.20
2019-02-22T10:20:08.311Z,10.00
2019-02-22T10:22:38.611Z,10.00
2019-02-22T10:25:09.020Z,9.90
2019-02-22T10:27:39.225Z,9.90
2019-02-22T10:30:12.716Z,10.00
2019-02-22T10:32:43.008Z,10.10
2019-02-22T10:35:13.402Z,10.20
2019-02-22T10:37:43.611Z,10.30
2019-02-22T10:40:13.809Z,10.40
2019-02-22T10:42:44.016Z,10.40
2019-02-22T10:45:15.923Z,10.50
2019-02-22T10:47:46.128Z,10.50
2019-02-22T10:50:16.520Z,10.50
2019-02-22T10:52:47.064Z,10.50
2019-02-22T10:55:17.292Z,10.50
2019-02-22T10:57:47.622Z,10.40
2019-02-22T11:00:18.247Z,10.50
2019-02-22T11:02:48.480Z,10.40
2019-02-22T11:05:18.672Z,10.50
2019-02-22T11:07:49.575Z,10.40
2019-02-22T11:10:20.097Z,10.40
2019-02-22T11:12:50.371Z,10.40
2019-02-22T11:15:20.639Z,10.40
2019-02-22T11:17:50.898Z,10.40
2019-02-22T11:20:21.074Z,10.50
2019-02-22T11:22:51.888Z,10.60
2019-02-22T11:25:22.243Z,10.70
2019-02-22T11:27:52.464Z,10.70
2019-02-22T11:30:22.808Z,10.80
2019-02-22T11:32:53.111Z,10.90
2019-02-22T11:35:23.603Z,11.00
2019-02-22T11:37:53.800Z,10.90
2019-02-22T11:40:24.515Z,10.80
2019-02-22T11:42:54.803Z,10.60
2019-02-22T11:45:25.088Z,10.60
2019-02-22T11:47:55.380Z,10.60
2019-02-22T11:50:25.686Z,10.60
2019-02-22T11:52:55.960Z,10.70
2019-02-22T11:55:26.441Z,10.70
2019-02-22T11:57:56.783Z,10.70
2019-02-22T12:00:27.997Z,10.60
2019-02-22T12:02:58.180Z,10.80
2019-02-22T12:05:28.992Z,10.90
2019-02-22T12:07:59.244Z,10.90
2019-02-22T12:10:29.500Z,10.90
2019-02-22T12:12:59.665Z,10.90
2019-02-22T12:15:31.497Z,11.00
2019-02-22T12:18:01.911Z,11.00
2019-02-22T12:20:32.180Z,11.00
2019-02-22T12:23:02.449Z,11.10
2019-02-22T12:25:32.855Z,11.20
2019-02-22T12:28:03.287Z,11.30
2019-02-22T12:30:33.516Z,11.50
2019-02-22T12:33:03.665Z,11.60
2019-02-22T12:35:33.859Z,11.70
2019-02-22T12:38:04.088Z,11.80
2019-02-22T12:40:34.404Z,11.80
2019-02-22T12:43:04.629Z,11.80
2019-02-22T12:45:34.907Z,11.60
2019-02-22T12:48:05.351Z,11.50
2019-02-22T12:50:35.796Z,11.50
2019-02-22T12:53:06.051Z,11.40
2019-02-22T12:55:36.253Z,11.30
2019-02-22T12:58:06.436Z,11.30
2019-02-22T13:00:36.704Z,11.30
2019-02-22T13:03:06.872Z,11.20
2019-02-22T13:05:37.063Z,11.10
2019-02-22T13:08:07.620Z,11.10
2019-02-22T13:10:37.839Z,11.20
2019-02-22T13:13:08.103Z,11.30
2019-02-22T13:15:38.312Z,11.40
2019-02-22T13:18:10.041Z,11.30
2019-02-22T13:20:40.303Z,11.30
2019-02-22T13:23:10.537Z,11.30
2019-02-22T13:25:40.717Z,11.30
2019-02-22T13:28:10.895Z,11.30
2019-02-22T13:30:41.580Z,11.30
2019-02-22T13:33:11.839Z,11.40
2019-02-22T13:35:42.148Z,11.50
2019-02-22T13:38:12.432Z,11.40
2019-02-22T13:40:42.912Z,11.40
2019-02-22T13:43:13.163Z,11.50
2019-02-22T13:45:43.617Z,11.50
2019-02-22T13:48:15.301Z,11.50
2019-02-22T13:50:45.577Z,11.50
2019-02-22T13:53:15.832Z,11.60
2019-02-22T13:55:47.118Z,11.60
2019-02-22T13:58:18.143Z,11.60
2019-02-22T14:00:48.451Z,11.60
2019-02-22T14:03:18.686Z,11.60
2019-02-22T14:05:48.936Z,11.50
2019-02-22T14:08:19.084Z,11.40
2019-02-22T14:10:49.304Z,11.40
2019-02-22T14:13:19.471Z,11.40
2019-02-22T14:15:49.840Z,11.40
2019-02-22T14:18:20.007Z,11.40
2019-02-22T14:20:50.208Z,11.50
2019-02-22T14:23:20.359Z,11.40
2019-02-22T14:25:50.549Z,11.40
2019-02-22T14:28:20.732Z,11.50
2019-02-22T14:30:51.033Z,11.40
2019-02-22T14:33:21.216Z,11.50
2019-02-22T14:35:51.616Z,11.50
2019-02-22T14:38:21.795Z,11.60
2019-02-22T14:40:51.996Z,11.60
2019-02-22T14:43:22.468Z,11.60
2019-02-22T14:45:53.314Z,11.60
2019-02-22T14:48:23.511Z,11.50
2019-02-22T14:50:53.691Z,11.60
2019-02-22T14:53:23.890Z,11.60
2019-02-22T14:55:54.057Z,11.70
2019-02-22T14:58:24.206Z,11.60
2019-02-22T15:00:55.553Z,11.60
2019-02-22T15:03:26.552Z,11.50
2019-02-22T15:05:56.881Z,11.50
2019-02-22T15:08:26.984Z,11.50
2019-02-22T15:10:57.167Z,11.50
2019-02-22T15:13:27.335Z,11.60
2019-02-22T15:16:01.066Z,11.50
2019-02-22T15:18:30.265Z,11.50
2019-02-22T15:21:00.456Z,11.50
2019-02-22T15:23:30.820Z,11.50
2019-02-22T15:26:01.043Z,11.40
2019-02-22T15:28:31.221Z,11.30
2019-02-22T15:31:01.478Z,11.30
2019-02-22T15:33:31.759Z,11.30
2019-02-22T15:36:01.918Z,11.20
2019-02-22T15:38:34.505Z,11.20
2019-02-22T15:41:03.901Z,11.20
2019-02-22T15:43:34.539Z,11.30
2019-02-22T15:46:12.198Z,11.30
2019-02-22T15:48:39.212Z,11.30
2019-02-22T15:51:09.375Z,11.30
2019-02-22T15:53:39.792Z,11.30
2019-02-22T15:56:10.027Z,11.40
2019-02-22T15:58:40.206Z,11.30
2019-02-22T16:01:10.479Z,11.20
2019-02-22T16:03:52.303Z,11.30
2019-02-22T16:06:22.518Z,11.30
2019-02-22T16:08:52.780Z,11.20
2019-02-22T16:11:23.061Z,11.20
2019-02-22T16:13:53.259Z,11.20
2019-02-22T16:16:24.028Z,11.20
2019-02-22T16:18:54.202Z,11.10
2019-02-22T16:21:24.416Z,11.10
2019-02-22T16:23:54.839Z,11.00
2019-02-22T16:26:26.828Z,11.00
2019-02-22T16:28:57.079Z,10.90
2019-02-22T16:31:27.235Z,10.80
2019-02-22T16:33:57.510Z,10.80
2019-02-22T16:36:27.673Z,10.80
2019-02-22T16:38:57.835Z,10.80
2019-02-22T16:41:28.789Z,10.80
2019-02-22T16:43:59.596Z,10.80
2019-02-22T16:46:34.963Z,10.80
2019-02-22T16:49:04.547Z,10.70
2019-02-22T16:51:36.765Z,10.60
2019-02-22T16:54:07.482Z,10.60
2019-02-22T16:56:38.531Z,10.50
2019-02-22T16:59:10.612Z,10.50
2019-02-22T17:01:43.172Z,10.60
2019-02-22T17:04:13.407Z,10.60
2019-02-22T17:06:44.176Z,10.60
2019-02-22T17:09:17.442Z,10.60
2019-02-22T17:11:47.693Z,10.60
2019-02-22T17:14:17.871Z,10.50
2019-02-22T17:16:49.823Z,10.50
2019-02-22T17:19:20.303Z,10.40
2019-02-22T17:21:50.537Z,10.40
2019-02-22T17:24:20.712Z,10.40
2019-02-22T17:26:51.039Z,10.40
2019-02-22T17:29:21.221Z,10.40
2019-02-22T17:31:51.507Z,10.40
2019-02-22T17:34:21.741Z,10.40
2019-02-22T17:36:51.863Z,10.30
2019-02-22T17:39:22.048Z,10.30
2019-02-22T17:41:52.208Z,10.30
2019-02-22T17:44:22.393Z,10.30
2019-02-22T17:46:57.760Z,10.20
2019-02-22T17:49:24.346Z,10.20
2019-02-22T17:51:55.323Z,10.20
2019-02-22T17:54:25.547Z,10.20
2019-02-22T17:56:55.943Z,10.20
2019-02-22T17:59:26.151Z,10.20
2019-02-22T18:01:56.315Z,10.20
2019-02-22T18:04:26.525Z,10.20
2019-02-22T18:06:56.720Z,10.00
2019-02-22T18:09:26.903Z,10.00
2019-02-22T18:11:57.683Z,10.00
2019-02-22T18:14:27.886Z,10.00
2019-02-22T18:17:07.967Z,10.00
2019-02-22T18:19:31.928Z,9.90
2019-02-22T18:22:01.571Z,9.90
2019-02-22T18:24:31.744Z,9.80
2019-02-22T18:27:12.348Z,9.70
2019-02-22T18:29:44.704Z,9.60
2019-02-22T18:32:16.218Z,9.50
2019-02-22T18:34:46.395Z,9.50
2019-02-22T18:37:16.635Z,9.40
2019-02-22T18:39:46.835Z,9.40
2019-02-22T18:42:17.059Z,9.30
2019-02-22T18:44:47.306Z,9.20
2019-02-22T18:47:19.758Z,9.20
2019-02-22T18:49:49.635Z,9.20
2019-02-22T18:52:20.005Z,9.20
2019-02-22T18:54:51.790Z,9.10
2019-02-22T18:57:22.375Z,9.10
2019-02-22T18:59:53.325Z,9.00
2019-02-22T19:02:23.727Z,9.00
2019-02-22T19:04:53.999Z,9.00
2019-02-22T19:07:27.170Z,8.90
2019-02-22T19:09:56.565Z,8.80
2019-02-22T19:12:26.724Z,8.80
2019-02-22T19:14:56.967Z,8.70
2019-02-22T19:17:30.457Z,8.70
2019-02-22T19:19:59.137Z,8.60
2019-02-22T19:22:29.297Z,8.50
2019-02-22T19:24:59.700Z,8.50
2019-02-22T19:27:30.069Z,8.40
2019-02-22T19:30:00.387Z,8.40
2019-02-22T19:32:30.567Z,8.40
2019-02-22T19:35:00.759Z,8.40
2019-02-22T19:37:30.932Z,8.40
2019-02-22T19:40:01.323Z,8.30
2019-02-22T19:42:31.487Z,8.20
2019-02-22T19:45:03.195Z,8.20
2019-02-22T19:47:41.366Z,8.10
2019-02-22T19:50:08.535Z,8.10
2019-02-22T19:52:38.824Z,8.00
2019-02-22T19:55:11.372Z,7.90
2019-02-22T19:57:41.799Z,7.90
2019-02-22T20:00:14.655Z,7.80
2019-02-22T20:02:44.926Z,7.70
2019-02-22T20:05:15.856Z,7.70
2019-02-22T20:07:46.089Z,7.60
2019-02-22T20:10:19.360Z,7.40
2019-02-22T20:12:49.645Z,7.30
2019-02-22T20:15:19.991Z,7.30
2019-02-22T20:17:54.422Z,7.20
2019-02-22T20:20:22.075Z,7.10
2019-02-22T20:22:52.259Z,7.10
2019-02-22T20:25:22.487Z,7.10
2019-02-22T20:27:52.790Z,7.00
2019-02-22T20:30:22.991Z,6.90
2019-02-22T20:32:53.195Z,6.90
2019-02-22T20:35:27.399Z,6.80
2019-02-22T20:37:57.572Z,6.70
2019-02-22T20:40:27.753Z,6.70
2019-02-22T20:42:58.031Z,6.60
2019-02-22T20:45:28.576Z,6.50
2019-02-22T20:48:05.099Z,6.60
2019-02-22T20:50:30.889Z,6.60
2019-02-22T20:53:01.268Z,6.60
2019-02-22T20:55:31.807Z,6.60
2019-02-22T20:58:02.779Z,6.50
2019-02-22T21:00:32.981Z,6.40
2019-02-22T21:03:03.164Z,6.30
2019-02-22T21:05:33.367Z,6.30
2019-02-22T21:08:05.141Z,6.30
2019-02-22T21:10:35.347Z,6.20
2019-02-22T21:13:05.902Z,6.30
2019-02-22T21:15:36.148Z,6.30
2019-02-22T21:18:15.822Z,6.20
2019-02-22T21:20:38.182Z,6.20
2019-02-22T21:23:08.363Z,6.10
2019-02-22T21:25:39.947Z,6.10
2019-02-22T21:28:10.140Z,6.20
2019-02-22T21:30:40.412Z,6.10
2019-02-22T21:33:10.895Z,6.00
2019-02-22T21:35:41.085Z,6.00
2019-02-22T21:38:11.415Z,6.00
2019-02-22T21:40:41.612Z,6.00
2019-02-22T21:43:11.880Z,5.90
2019-02-22T21:45:42.076Z,5.80
2019-02-22T21:48:12.323Z,5.80
2019-02-22T21:50:42.523Z,5.70
2019-02-22T21:53:12.675Z,5.70
2019-02-22T21:55:42.924Z,5.70
2019-02-22T21:58:13.087Z,5.60
2019-02-22T22:00:43.341Z,5.60
2019-02-22T22:03:13.520Z,5.50
2019-02-22T22:05:43.716Z,5.50
2019-02-22T22:08:13.878Z,5.40
2019-02-22T22:10:44.067Z,5.40
2019-02-22T22:13:14.243Z,5.40
2019-02-22T22:15:44.500Z,5.40
2019-02-22T22:18:15.950Z,5.30
2019-02-22T22:20:46.239Z,5.30
2019-02-22T22:23:16.400Z,5.30
2019-02-22T22:25:46.577Z,5.30
2019-02-22T22:28:17.130Z,5.30
2019-02-22T22:30:47.301Z,5.30
2019-02-22T22:33:17.555Z,5.30
2019-02-22T22:35:47.730Z,5.30
2019-02-22T22:38:17.955Z,5.20
2019-02-22T22:40:48.128Z,5.20
2019-02-22T22:43:18.301Z,5.10
2019-02-22T22:45:48.472Z,5.10
2019-02-22T22:48:18.648Z,5.20
2019-02-22T22:50:49.019Z,5.20
2019-02-22T22:53:19.195Z,5.30
2019-02-22T22:55:49.444Z,5.30
2019-02-22T22:58:19.695Z,5.30
2019-02-22T23:00:53.920Z,5.30
2019-02-22T23:03:24.150Z,5.20
2019-02-22T23:05:54.392Z,5.10
2019-02-22T23:08:24.737Z,5.10
2019-02-22T23:10:55.012Z,5.10
2019-02-22T23:13:25.368Z,5.10
2019-02-22T23:15:55.636Z,5.10
2019-02-22T23:18:25.859Z,5.10
2019-02-22T23:20:56.177Z,5.00
2019-02-22T23:23:26.405Z,4.90
2019-02-22T23:25:56.875Z,4.80
2019-02-22T23:28:27.046Z,4.80
2019-02-22T23:30:57.279Z,4.80
2019-02-22T23:33:30.252Z,4.70
2019-02-22T23:36:00.866Z,4.70
2019-02-22T23:38:31.024Z,4.70
2019-02-22T23:41:01.265Z,4.80
2019-02-22T23:43:31.459Z,4.70
2019-02-22T23:46:01.755Z,4.70
2019-02-22T23:48:31.924Z,4.60
2019-02-22T23:51:02.137Z,4.60
2019-02-22T23:53:32.301Z,4.60
2019-02-22T23:56:02.572Z,4.60
2019-02-22T23:58:32.815Z,4.60
